Flight Track Log - Related Links

Times and Time Zones

All times are in EDT time to prevent confusion due to time zone crossing. See the AWE874 flight status page for this flight to view local times or setup timezone preferences in your user account.


Time Position Orientation Groundspeed Altitude Reporting Facility
EDT Latitude Longitude Course Direction KTS MPH feet Rate Location/Type
Sun 06:47:35 AM 38.8667 -77.0500 225° Southwest 162 186 1,000  Level Potomac TRACON
Sun 06:49:42 AM 38.9617 -77.1561 319° Northwest 217 250 6,400 2,779 Climbing Washington Center
Sun 06:50:00 AM 38.6462 -77.2667 180° South  Level FlightAware Approximate
Sun 06:50:45 AM 38.9939 -77.2314 299° West 244 281 9,800  Level Washington Center
Sun 06:51:00 AM 38.5688 -77.3420 222° Southwest  Level FlightAware Approximate
Sun 06:51:43 AM 38.9244 -77.2886 213° Southwest 195 224 11,800  Level Washington Center
Sun 06:52:00 AM 38.4966 -77.4306 225° Southwest  Level FlightAware Approximate
Sun 06:53:00 AM 38.4260 -77.5214 225° Southwest  Level FlightAware Approximate
Sun 06:53:44 AM 38.7583 -77.3806 203° Southwest 291 335 15,000  Level Washington Center
Sun 06:54:45 AM 38.6639 -77.4289 202° Southwest 336 387 15,000 1,017 Level Washington Center
Sun 06:55:42 AM 38.5733 -77.4769 203° Southwest 358 412 17,000 1,916 Climbing Washington Center
Sun 06:56:44 AM 38.4747 -77.5275 202° Southwest 373 429 18,800 1,902 Climbing Washington Center
Sun 06:57:45 AM 38.3775 -77.5939 208° Southwest 385 443 20,900 2,132 Climbing Washington Center
Sun 06:58:45 AM 38.3047 -77.7031 230° Southwest 391 450 23,100 2,593 Climbing Washington Center
Sun 06:59:43 AM 38.2239 -77.7908 220° Southwest 396 456 26,000 1,983 Climbing Washington Center
Sun 07:00:43 AM 38.1408 -77.8833 221° Southwest 396 456 27,000 893 Climbing Washington Center
Sun 07:01:44 AM 38.0578 -77.9758 221° Southwest 396 456 27,800 992 Climbing Washington Center
Sun 07:02:44 AM 37.9642 -78.0756 220° Southwest 396 456 29,000 595 Climbing Washington Center
Sun 07:03:45 AM 37.8828 -78.1756 224° Southwest 396 456 29,000  Level Washington Center
Sun 07:04:43 AM 37.8567 -78.3139 257° West 391 450 29,000 200 Level Washington Center
Sun 07:05:45 AM 37.8328 -78.4444 257° West 396 456 29,400 1,500 Climbing Washington Center
Sun 07:06:43 AM 37.7653 -78.5628 234° Southwest 396 456 32,000 1,311 Climbing Washington Center
Sun 07:07:44 AM 37.6833 -78.6725 227° Southwest 411 473 32,000  Level Washington Center
Sun 07:08:45 AM 37.6033 -78.7767 226° Southwest 442 509 32,000  Level Washington Center
Sun 07:09:44 AM 37.5189 -78.8858 226° Southwest 447 514 32,000  Level Washington Center
Sun 07:10:43 AM 37.4344 -78.9997 227° Southwest 447 514 32,000  Level Washington Center
Sun 07:11:43 AM 37.3456 -79.1133 225° Southwest 447 514 32,000 -149 Level Washington Center
Sun 07:12:44 AM 37.2569 -79.2242 225° Southwest 447 514 31,700 -738 Descending Washington Center
Sun 07:13:45 AM 37.1453 -79.3258 216° Southwest 455 524 30,500 -1,100 Descending Washington Center
Sun 07:14:44 AM 37.0381 -79.4142 213° Southwest 461 531 29,500 -756 Descending Washington Center
Sun 07:15:44 AM 36.9308 -79.5025 213° Southwest 466 536 29,000 -496 Descending Washington Center
Sun 07:16:45 AM 36.8300 -79.5881 214° Southwest 460 529 28,500 -712 Descending Washington Center
Sun 07:17:42 AM 36.7272 -79.6708 213° Southwest 455 524 27,600 -968 Descending Washington Center
Sun 07:19:20 AM 36.5708 -79.7944 212° Southwest 447 514 26,000 -949 Descending Atlanta Center
Sun 07:20:20 AM 36.4714 -79.8744 213° Southwest 440 506 25,100 -1,550 Descending Atlanta Center
Sun 07:21:20 AM 36.3619 -79.9628 213° Southwest 435 501 22,900 -1,550 Descending Atlanta Center
Sun 07:22:20 AM 36.2664 -80.0422 214° Southwest 429 494 22,000 -1,250 Descending Atlanta Center
Sun 07:23:20 AM 36.1731 -80.1239 215° Southwest 419 482 20,400 -1,950 Descending Atlanta Center
Sun 07:24:20 AM 36.0939 -80.1919 215° Southwest 401 461 18,100 -1,950 Descending Atlanta Center
Sun 07:25:20 AM 36.0044 -80.2681 215° Southwest 396 456 16,500 -1,673 Descending Atlanta Center
Sun 07:26:04 AM 35.9375 -80.3303 217° Southwest 371 427 15,200 -1,600 Descending Atlanta Center
Sun 07:26:20 AM 35.9131 -80.3467 209° Southwest 389 448 14,900 -1,400 Descending Atlanta Center
Sun 07:27:04 AM 35.8583 -80.4006 219° Southwest 339 390 13,800 -1,400 Descending Atlanta Center
Sun 07:27:20 AM 35.8358 -80.4142 206° Southwest 368 423 13,500 -984 Descending Atlanta Center
Sun 07:28:05 AM 35.7850 -80.4600 216° Southwest 313 360 12,800 -1,000 Descending Atlanta Center
Sun 07:28:20 AM 35.7667 -80.4736 211° Southwest 330 380 12,500 -1,475 Descending Atlanta Center
Sun 07:29:06 AM 35.7200 -80.5167 217° Southwest 290 334 11,300 -1,585 Descending Atlanta Center
Sun 07:30:06 AM 35.6444 -80.5761 213° Southwest 291 335 9,700 -1,537 Descending Atlanta Center
Sun 07:31:07 AM 35.5747 -80.6250 210° Southwest 283 326 8,200 -1,475 Descending Atlanta Center
Sun 07:32:08 AM 35.5072 -80.6711 209° Southwest 282 325 6,700 -1,230 Descending Atlanta Center
Sun 07:33:09 AM 35.4394 -80.7122 206° Southwest 273 314 5,700 -1,082 Descending Atlanta Center
Sun 07:34:10 AM 35.3739 -80.7556 208° Southwest 263 303 4,500 -1,041 Descending Atlanta Center
Sun 07:35:10 AM 35.3186 -80.7958 211° Southwest 224 258 3,600 -900 Descending Atlanta Center

Login

Don't have an account? Register now (free) for customized features, flight alerts, and more!